Terminal Aerodrome Forecast
Issued by NWS Nashville, TN

Home | Current Version | Previous Version | Text Only | Print | Product List | Glossary On
Versions: 1 2 3 4 5 6 7 8 9 10 11 12 13 14 15 16 17 18 19 20 21 22 23 24 25 26 27
000
FTUS44 KOHX 021730
TAFBNA
TAF
KBNA 021730Z 0218/0318 20009KT P6SM BKN080
     FM022000 21009G15KT P6SM VCTS BKN070CB
     FM030000 22007KT P6SM SCT030 BKN070
     FM030900 23006KT P6SM OVC025
     FM031100 24006KT 5SM BR OVC015=

USA.gov is the U.S. government's official web portal to all federal, state and local government web resources and services.